American Canyon, California
Current Conditions -  °F | °C
As of 1:54 AM on Saturday 22 Nov 2014 (Local Time) from KAPC Reporting Station
Overcast Overcast  
Wind Chill: 58°   Ceiling: 2800
Heat Index: 58°   Visibility: 10mi
Dew Point: 54°   Wind: 9mph
Humidity: 87%   Direction: 170°S
Pressure: 30.08"   Gusts: NA
Location:  38.17°N, 122.25°W
Report Text: KAPC 220954Z AUTO 17008KT 10SM OVC028 14/12 A3008 RMK AO2 SLP177 T01440122
Loading
Personal Weather Stations






























Interactive Weather Map New forecast layout! Learn more

10-Day Weather Forecast

Advertisements
Track Severe Weather on mobile